PWSweather.com
Personal Weather Stations
Station Observations
133525
French Quarters West Seneca , West Seneca, NY 14224

French Quarters West Seneca West Seneca, NY 14224

Lat: 42.850058, Lon: -78.799754

Elevation: 603

Station Type: Davis Vantage Vue pro2

http://westsenecaweather.com/

Latest ConditionsUpdated 8:50:01 PM EST Wednesday, Jan 16, 2019
Currently Today's Max Today's Min Today's Average
Temperature 20.2°F-6.6°C 34.0°F1.1°C 20.2°F-6.6°C 28.3°F-2.1°C
Dew Point 11.7°F-11.3°C 29.3°F-1.5°C 11.7°F-11.3°C 21.8°F-5.7°C
Winds 5.8 mph SSE9.3 kmh SSE 15.0 mph -24.1 kmh - - 8.5 mph 13.7 kmh
Wind Gusts 8.1 mph13.0 kmh 26.5 mph42.6 kmh - -
Humidity 69% 94% 56% 77%
Pressure 30.34 in1027.4 mb 30.34 in1027.4 mb 29.94 in1013.9 mb -
Hour Temp Dew Point Humidity Winds Wind Gusts Pressure Precip Precip Rate Daily Precip Total
08:50 PM 20.2°F-6.6°C 11.7°F-11.3°C 69% 5.8 mph SSE9.3 kmh SSE 8.1 mph13.0 kmh 30.34 in1027.4 mb - 0.00 in0.0 mm 0.00 in0.0 mm
08:45 PM 20.3°F-6.5°C 11.7°F-11.3°C 69% 5.8 mph SSE9.3 kmh SSE 6.9 mph11.1 kmh 30.33 in1027.1 mb - 0.00 in0.0 mm 0.00 in0.0 mm
08:40 PM 20.3°F-6.5°C 11.7°F-11.3°C 69% 4.6 mph SE7.4 kmh SE 6.9 mph11.1 kmh 30.33 in1027.1 mb - 0.00 in0.0 mm 0.00 in0.0 mm
08:35 PM 20.4°F-6.4°C 11.8°F-11.2°C 69% 3.5 mph SE5.6 kmh SE 10.4 mph16.7 kmh 30.33 in1027.1 mb - 0.00 in0.0 mm 0.00 in0.0 mm
08:30 PM 20.5°F-6.4°C 12.0°F-11.1°C 69% 6.9 mph SE11.1 kmh SE 8.1 mph13.0 kmh 30.32 in1026.8 mb - 0.00 in0.0 mm 0.00 in0.0 mm
08:25 PM 20.6°F-6.3°C 12.0°F-11.1°C 69% 4.6 mph SE7.4 kmh SE 5.8 mph9.3 kmh 30.33 in1027.1 mb - 0.00 in0.0 mm 0.00 in0.0 mm
08:20 PM 20.7°F-6.3°C 12.1°F-11.1°C 69% 8.1 mph SE13.0 kmh SE 10.4 mph16.7 kmh 30.32 in1026.8 mb - 0.00 in0.0 mm 0.00 in0.0 mm
08:15 PM 20.9°F-6.2°C 12.3°F-10.9°C 69% 5.8 mph SE9.3 kmh SE 9.2 mph14.8 kmh 30.32 in1026.8 mb - 0.00 in0.0 mm 0.00 in0.0 mm
08:10 PM 21.0°F-6.1°C 12.4°F-10.9°C 69% 4.6 mph SE7.4 kmh SE 6.9 mph11.1 kmh 30.32 in1026.8 mb - 0.00 in0.0 mm 0.00 in0.0 mm
08:00 PM 21.2°F-6.0°C 12.3°F-10.9°C 68% 5.8 mph SE9.3 kmh SE 10.4 mph16.7 kmh 30.32 in1026.8 mb - 0.00 in0.0 mm 0.00 in0.0 mm
07:55 PM 21.4°F-5.9°C 12.1°F-11.1°C 67% 4.6 mph SSE7.4 kmh SSE 8.1 mph13.0 kmh 30.32 in1026.8 mb - 0.00 in0.0 mm 0.00 in0.0 mm
07:50 PM 21.5°F-5.8°C 11.9°F-11.2°C 66% 3.5 mph SE5.6 kmh SE 9.2 mph14.8 kmh 30.32 in1026.8 mb - 0.00 in0.0 mm 0.00 in0.0 mm
07:45 PM 21.6°F-5.8°C 12.3°F-10.9°C 67% 4.6 mph E7.4 kmh E 11.5 mph18.5 kmh 30.32 in1026.8 mb - 0.00 in0.0 mm 0.00 in0.0 mm
07:40 PM 21.7°F-5.7°C 12.4°F-10.9°C 67% 3.5 mph SE5.6 kmh SE 6.9 mph11.1 kmh 30.31 in1026.4 mb - 0.00 in0.0 mm 0.00 in0.0 mm
07:35 PM 21.7°F-5.7°C 12.4°F-10.9°C 67% 3.5 mph SE5.6 kmh SE 4.6 mph7.4 kmh 30.31 in1026.4 mb - 0.00 in0.0 mm 0.00 in0.0 mm
07:30 PM 21.8°F-5.7°C 12.2°F-11.0°C 66% 6.9 mph ESE11.1 kmh ESE 10.4 mph16.7 kmh 30.31 in1026.4 mb - 0.00 in0.0 mm 0.00 in0.0 mm
07:25 PM 21.9°F-5.6°C 12.3°F-10.9°C 66% 4.6 mph SE7.4 kmh SE 8.1 mph13.0 kmh 30.31 in1026.4 mb - 0.00 in0.0 mm 0.00 in0.0 mm
07:20 PM 22.0°F-5.6°C 12.7°F-10.7°C 67% 3.5 mph SE5.6 kmh SE 10.4 mph16.7 kmh 30.30 in1026.1 mb - 0.00 in0.0 mm 0.00 in0.0 mm
07:15 PM 22.0°F-5.6°C 12.4°F-10.9°C 66% 5.8 mph SE9.3 kmh SE 8.1 mph13.0 kmh 30.30 in1026.1 mb - 0.00 in0.0 mm 0.00 in0.0 mm
07:10 PM 22.1°F-5.5°C 12.1°F-11.1°C 65% 6.9 mph SE11.1 kmh SE 9.2 mph14.8 kmh 30.30 in1026.1 mb - 0.00 in0.0 mm 0.00 in0.0 mm
07:00 PM 22.5°F-5.3°C 12.8°F-10.7°C 66% 4.6 mph SE7.4 kmh SE 8.1 mph13.0 kmh 30.29 in1025.7 mb - 0.00 in0.0 mm 0.00 in0.0 mm
06:55 PM 22.6°F-5.2°C 12.9°F-10.6°C 66% 6.9 mph SE11.1 kmh SE 11.5 mph18.5 kmh 30.29 in1025.7 mb - 0.00 in0.0 mm 0.00 in0.0 mm
06:50 PM 22.7°F-5.2°C 13.0°F-10.6°C 66% 2.3 mph ESE3.7 kmh ESE 3.5 mph5.6 kmh 30.29 in1025.7 mb - 0.00 in0.0 mm 0.00 in0.0 mm
06:45 PM 22.8°F-5.1°C 13.1°F-10.5°C 66% 4.6 mph ESE7.4 kmh ESE 10.4 mph16.7 kmh 30.28 in1025.4 mb - 0.00 in0.0 mm 0.00 in0.0 mm
06:40 PM 22.9°F-5.1°C 13.2°F-10.4°C 66% 3.5 mph SE5.6 kmh SE 3.5 mph5.6 kmh 30.28 in1025.4 mb - 0.00 in0.0 mm 0.00 in0.0 mm
06:35 PM 23.0°F-5.0°C 13.3°F-10.4°C 66% 4.6 mph SE7.4 kmh SE 5.8 mph9.3 kmh 30.28 in1025.4 mb - 0.00 in0.0 mm 0.00 in0.0 mm
06:30 PM 23.1°F-4.9°C 13.4°F-10.3°C 66% 5.8 mph ESE9.3 kmh ESE 10.4 mph16.7 kmh 30.28 in1025.4 mb - 0.00 in0.0 mm 0.00 in0.0 mm
06:25 PM 23.1°F-4.9°C 13.4°F-10.3°C 66% 5.8 mph SE9.3 kmh SE 11.5 mph18.5 kmh 30.27 in1025.1 mb - 0.00 in0.0 mm 0.00 in0.0 mm
06:20 PM 23.2°F-4.9°C 13.5°F-10.3°C 66% 3.5 mph SE5.6 kmh SE 5.8 mph9.3 kmh 30.27 in1025.1 mb - 0.00 in0.0 mm 0.00 in0.0 mm
06:15 PM 23.3°F-4.8°C 13.6°F-10.2°C 66% 5.8 mph ESE9.3 kmh ESE 6.9 mph11.1 kmh 30.27 in1025.1 mb - 0.00 in0.0 mm 0.00 in0.0 mm
06:10 PM 23.5°F-4.7°C 14.1°F-9.9°C 67% 4.6 mph E7.4 kmh E 6.9 mph11.1 kmh 30.26 in1024.7 mb - 0.00 in0.0 mm 0.00 in0.0 mm
06:00 PM 23.9°F-4.5°C 14.2°F-9.9°C 66% 5.8 mph SE9.3 kmh SE 6.9 mph11.1 kmh 30.26 in1024.7 mb - 0.00 in0.0 mm 0.00 in0.0 mm
05:55 PM 24.0°F-4.4°C 13.6°F-10.2°C 64% 4.6 mph ESE7.4 kmh ESE 8.1 mph13.0 kmh 30.25 in1024.4 mb - 0.00 in0.0 mm 0.00 in0.0 mm
05:50 PM 24.0°F-4.4°C 13.3°F-10.4°C 63% 4.6 mph ESE7.4 kmh ESE 6.9 mph11.1 kmh 30.25 in1024.4 mb - 0.00 in0.0 mm 0.00 in0.0 mm
05:45 PM 24.0°F-4.4°C 13.6°F-10.2°C 64% 4.6 mph E7.4 kmh E 9.2 mph14.8 kmh 30.24 in1024.0 mb - 0.00 in0.0 mm 0.00 in0.0 mm
05:40 PM 24.0°F-4.4°C 13.2°F-10.4°C 63% 6.9 mph E11.1 kmh E 11.5 mph18.5 kmh 30.24 in1024.0 mb - 0.00 in0.0 mm 0.00 in0.0 mm
05:35 PM 24.0°F-4.4°C 13.2°F-10.4°C 63% 6.9 mph E11.1 kmh E 11.5 mph18.5 kmh 30.23 in1023.7 mb - 0.00 in0.0 mm 0.00 in0.0 mm
05:30 PM 24.1°F-4.4°C 13.3°F-10.4°C 63% 5.8 mph E9.3 kmh E 6.9 mph11.1 kmh 30.23 in1023.7 mb - 0.00 in0.0 mm 0.00 in0.0 mm
05:25 PM 24.3°F-4.3°C 13.5°F-10.3°C 63% 5.8 mph E9.3 kmh E 10.4 mph16.7 kmh 30.23 in1023.7 mb - 0.00 in0.0 mm 0.00 in0.0 mm
05:20 PM 24.4°F-4.2°C 13.2°F-10.4°C 62% 4.6 mph E7.4 kmh E 9.2 mph14.8 kmh 30.23 in1023.7 mb - 0.00 in0.0 mm 0.00 in0.0 mm
05:15 PM 24.5°F-4.2°C 13.3°F-10.4°C 62% 6.9 mph E11.1 kmh E 9.2 mph14.8 kmh 30.22 in1023.4 mb - 0.00 in0.0 mm 0.00 in0.0 mm
05:10 PM 24.8°F-4.0°C 13.2°F-10.4°C 61% 6.9 mph ENE11.1 kmh ENE 6.9 mph11.1 kmh 30.22 in1023.4 mb - 0.00 in0.0 mm 0.00 in0.0 mm
05:00 PM 25.0°F-3.9°C 13.4°F-10.3°C 61% 10.4 mph E16.7 kmh E 16.1 mph25.9 kmh 30.22 in1023.4 mb - 0.00 in0.0 mm 0.00 in0.0 mm
04:50 PM 25.3°F-3.7°C 13.4°F-10.3°C 60% 10.4 mph E16.7 kmh E 12.7 mph20.4 kmh 30.21 in1023.0 mb - 0.00 in0.0 mm 0.00 in0.0 mm
04:45 PM 25.5°F-3.6°C 13.5°F-10.3°C 60% 9.2 mph E14.8 kmh E 11.5 mph18.5 kmh 30.20 in1022.7 mb - 0.00 in0.0 mm 0.00 in0.0 mm
04:40 PM 25.6°F-3.6°C 13.2°F-10.4°C 59% 5.8 mph E9.3 kmh E 13.8 mph22.2 kmh 30.20 in1022.7 mb - 0.00 in0.0 mm 0.00 in0.0 mm
04:35 PM 25.8°F-3.4°C 13.0°F-10.6°C 58% 5.8 mph E9.3 kmh E 8.1 mph13.0 kmh 30.20 in1022.7 mb - 0.00 in0.0 mm 0.00 in0.0 mm
04:30 PM 26.0°F-3.3°C 13.2°F-10.4°C 58% 4.6 mph E7.4 kmh E 10.4 mph16.7 kmh 30.20 in1022.7 mb - 0.00 in0.0 mm 0.00 in0.0 mm
04:25 PM 26.2°F-3.2°C 13.0°F-10.6°C 57% 6.9 mph E11.1 kmh E 11.5 mph18.5 kmh 30.19 in1022.4 mb - 0.00 in0.0 mm 0.00 in0.0 mm
04:20 PM 26.3°F-3.2°C 13.1°F-10.5°C 57% 9.2 mph E14.8 kmh E 13.8 mph22.2 kmh 30.19 in1022.4 mb - 0.00 in0.0 mm 0.00 in0.0 mm
04:15 PM 26.5°F-3.1°C 13.3°F-10.4°C 57% 9.2 mph E14.8 kmh E 13.8 mph22.2 kmh 30.18 in1022.0 mb - 0.00 in0.0 mm 0.00 in0.0 mm
04:10 PM 26.6°F-3.0°C 13.4°F-10.3°C 57% 10.4 mph E16.7 kmh E 13.8 mph22.2 kmh 30.18 in1022.0 mb - 0.00 in0.0 mm 0.00 in0.0 mm
04:00 PM 26.9°F-2.8°C 13.3°F-10.4°C 56% 8.1 mph E13.0 kmh E 15.0 mph24.1 kmh 30.18 in1022.0 mb - 0.00 in0.0 mm 0.00 in0.0 mm
03:55 PM 27.3°F-2.6°C 14.0°F-10.0°C 57% 8.1 mph E13.0 kmh E 15.0 mph24.1 kmh 30.18 in1022.0 mb - 0.00 in0.0 mm 0.00 in0.0 mm
03:50 PM 27.3°F-2.6°C 14.1°F-9.9°C 57% 6.9 mph E11.1 kmh E 12.7 mph20.4 kmh 30.17 in1021.7 mb - 0.00 in0.0 mm 0.00 in0.0 mm
03:45 PM 27.7°F-2.4°C 16.0°F-8.9°C 61% 8.1 mph ENE13.0 kmh ENE 13.8 mph22.2 kmh 30.17 in1021.7 mb - 0.00 in0.0 mm 0.00 in0.0 mm
03:40 PM 28.0°F-2.2°C 16.6°F-8.6°C 62% 9.2 mph E14.8 kmh E 12.7 mph20.4 kmh 30.16 in1021.3 mb - 0.00 in0.0 mm 0.00 in0.0 mm
03:35 PM 28.1°F-2.2°C 16.7°F-8.5°C 62% 4.6 mph ESE7.4 kmh ESE 10.4 mph16.7 kmh 30.16 in1021.3 mb - 0.00 in0.0 mm 0.00 in0.0 mm
03:30 PM 28.1°F-2.2°C 16.7°F-8.5°C 62% 6.9 mph E11.1 kmh E 11.5 mph18.5 kmh 30.15 in1021.0 mb - 0.00 in0.0 mm 0.00 in0.0 mm
03:25 PM 28.1°F-2.2°C 16.4°F-8.7°C 61% 9.2 mph E14.8 kmh E 15.0 mph24.1 kmh 30.15 in1021.0 mb - 0.00 in0.0 mm 0.00 in0.0 mm
03:20 PM 28.2°F-2.1°C 16.1°F-8.8°C 60% 11.5 mph E18.5 kmh E 19.6 mph31.5 kmh 30.15 in1021.0 mb - 0.00 in0.0 mm 0.00 in0.0 mm
03:15 PM 28.4°F-2.0°C 15.5°F-9.2°C 58% 11.5 mph E18.5 kmh E 15.0 mph24.1 kmh 30.15 in1021.0 mb - 0.00 in0.0 mm 0.00 in0.0 mm
03:10 PM 28.5°F-1.9°C 16.0°F-8.9°C 59% 11.5 mph E18.5 kmh E 13.8 mph22.2 kmh 30.14 in1020.7 mb - 0.00 in0.0 mm 0.00 in0.0 mm
03:00 PM 28.6°F-1.9°C 16.0°F-8.9°C 59% 11.5 mph E18.5 kmh E 16.1 mph25.9 kmh 30.13 in1020.3 mb - 0.00 in0.0 mm 0.00 in0.0 mm
02:55 PM 28.7°F-1.8°C 16.2°F-8.8°C 59% 12.7 mph E20.4 kmh E 17.3 mph27.8 kmh 30.13 in1020.3 mb - 0.00 in0.0 mm 0.00 in0.0 mm
02:50 PM 29.0°F-1.7°C 16.8°F-8.4°C 60% 13.8 mph E22.2 kmh E 18.4 mph29.6 kmh 30.13 in1020.3 mb - 0.00 in0.0 mm 0.00 in0.0 mm
02:45 PM 29.0°F-1.7°C 17.3°F-8.2°C 61% 12.7 mph E20.4 kmh E 23.0 mph37.0 kmh 30.13 in1020.3 mb - 0.00 in0.0 mm 0.00 in0.0 mm
02:40 PM 28.9°F-1.7°C 17.1°F-8.3°C 61% 10.4 mph E16.7 kmh E 16.1 mph25.9 kmh 30.12 in1020.0 mb - 0.00 in0.0 mm 0.00 in0.0 mm
02:35 PM 29.2°F-1.6°C 17.5°F-8.1°C 61% 10.4 mph E16.7 kmh E 18.4 mph29.6 kmh 30.12 in1020.0 mb - 0.00 in0.0 mm 0.00 in0.0 mm
02:30 PM 29.2°F-1.6°C 17.5°F-8.1°C 61% 10.4 mph E16.7 kmh E 16.1 mph25.9 kmh 30.12 in1020.0 mb - 0.00 in0.0 mm 0.00 in0.0 mm
02:25 PM 29.3°F-1.5°C 17.9°F-7.8°C 62% 9.2 mph E14.8 kmh E 17.3 mph27.8 kmh 30.11 in1019.6 mb - 0.00 in0.0 mm 0.00 in0.0 mm
02:20 PM 29.2°F-1.6°C 17.8°F-7.9°C 62% 11.5 mph ESE18.5 kmh ESE 19.6 mph31.5 kmh 30.11 in1019.6 mb - 0.00 in0.0 mm 0.00 in0.0 mm
02:15 PM 29.6°F-1.3°C 17.8°F-7.9°C 61% 12.7 mph E20.4 kmh E 19.6 mph31.5 kmh 30.11 in1019.6 mb - 0.00 in0.0 mm 0.00 in0.0 mm
02:10 PM 29.8°F-1.2°C 18.4°F-7.6°C 62% 10.4 mph ENE16.7 kmh ENE 15.0 mph24.1 kmh 30.10 in1019.3 mb - 0.00 in0.0 mm 0.00 in0.0 mm
02:00 PM 30.1°F-1.1°C 18.6°F-7.4°C 62% 12.7 mph E20.4 kmh E 19.6 mph31.5 kmh 30.10 in1019.3 mb - 0.00 in0.0 mm 0.00 in0.0 mm
01:55 PM 30.3°F-0.9°C 19.2°F-7.1°C 63% 8.1 mph E13.0 kmh E 11.5 mph18.5 kmh 30.10 in1019.3 mb - 0.00 in0.0 mm 0.00 in0.0 mm
01:50 PM 30.3°F-0.9°C 19.6°F-6.9°C 64% 9.2 mph E14.8 kmh E 12.7 mph20.4 kmh 30.10 in1019.3 mb - 0.00 in0.0 mm 0.00 in0.0 mm
01:45 PM 30.3°F-0.9°C 19.6°F-6.9°C 64% 9.2 mph E14.8 kmh E 17.3 mph27.8 kmh 30.10 in1019.3 mb - 0.00 in0.0 mm 0.00 in0.0 mm
01:40 PM 30.3°F-0.9°C 19.5°F-6.9°C 64% 9.2 mph E14.8 kmh E 11.5 mph18.5 kmh 30.09 in1019.0 mb - 0.00 in0.0 mm 0.00 in0.0 mm
01:35 PM 29.7°F-1.3°C 18.6°F-7.4°C 63% 10.4 mph E16.7 kmh E 13.8 mph22.2 kmh 30.09 in1019.0 mb - 0.00 in0.0 mm 0.00 in0.0 mm
01:30 PM 29.8°F-1.2°C 19.5°F-6.9°C 65% 9.2 mph ENE14.8 kmh ENE 17.3 mph27.8 kmh 30.09 in1019.0 mb - 0.00 in0.0 mm 0.00 in0.0 mm
01:25 PM 29.6°F-1.3°C 19.3°F-7.1°C 65% 12.7 mph E20.4 kmh E 17.3 mph27.8 kmh 30.09 in1019.0 mb - 0.00 in0.0 mm 0.00 in0.0 mm
01:20 PM 29.6°F-1.3°C 20.0°F-6.7°C 67% 10.4 mph E16.7 kmh E 25.3 mph40.7 kmh 30.09 in1019.0 mb - 0.00 in0.0 mm 0.00 in0.0 mm
01:15 PM 29.6°F-1.3°C 20.3°F-6.5°C 68% 9.2 mph E14.8 kmh E 17.3 mph27.8 kmh 30.08 in1018.6 mb - 0.00 in0.0 mm 0.00 in0.0 mm
01:10 PM 29.6°F-1.3°C 20.3°F-6.5°C 68% 12.7 mph E20.4 kmh E 17.3 mph27.8 kmh 30.08 in1018.6 mb - 0.00 in0.0 mm 0.00 in0.0 mm
01:00 PM 29.8°F-1.2°C 21.5°F-5.8°C 71% 10.4 mph E16.7 kmh E 15.0 mph24.1 kmh 30.08 in1018.6 mb - 0.00 in0.0 mm 0.00 in0.0 mm
12:55 PM 30.1°F-1.1°C 22.2°F-5.4°C 72% 10.4 mph E16.7 kmh E 17.3 mph27.8 kmh 30.07 in1018.3 mb - 0.00 in0.0 mm 0.00 in0.0 mm
12:50 PM 30.2°F-1.0°C 23.5°F-4.7°C 76% 6.9 mph E11.1 kmh E 12.7 mph20.4 kmh 30.07 in1018.3 mb - 0.00 in0.0 mm 0.00 in0.0 mm
12:45 PM 30.1°F-1.1°C 23.8°F-4.6°C 77% 9.2 mph E14.8 kmh E 17.3 mph27.8 kmh 30.07 in1018.3 mb - 0.00 in0.0 mm 0.00 in0.0 mm
12:40 PM 30.3°F-0.9°C 24.0°F-4.4°C 77% 9.2 mph E14.8 kmh E 16.1 mph25.9 kmh 30.07 in1018.3 mb - 0.00 in0.0 mm 0.00 in0.0 mm
12:35 PM 30.4°F-0.9°C 24.3°F-4.3°C 78% 6.9 mph E11.1 kmh E 9.2 mph14.8 kmh 30.07 in1018.3 mb - 0.00 in0.0 mm 0.00 in0.0 mm
12:30 PM 30.5°F-0.8°C 24.8°F-4.0°C 79% 11.5 mph E18.5 kmh E 13.8 mph22.2 kmh 30.06 in1017.9 mb - 0.00 in0.0 mm 0.00 in0.0 mm
12:25 PM 30.6°F-0.8°C 24.6°F-4.1°C 78% 10.4 mph E16.7 kmh E 16.1 mph25.9 kmh 30.06 in1017.9 mb - 0.00 in0.0 mm 0.00 in0.0 mm
12:20 PM 31.0°F-0.6°C 24.9°F-3.9°C 78% 9.2 mph E14.8 kmh E 15.0 mph24.1 kmh 30.05 in1017.6 mb - 0.00 in0.0 mm 0.00 in0.0 mm
12:15 PM 30.9°F-0.6°C 24.8°F-4.0°C 78% 10.4 mph ENE16.7 kmh ENE 16.1 mph25.9 kmh 30.05 in1017.6 mb - 0.00 in0.0 mm 0.00 in0.0 mm
12:10 PM 30.6°F-0.8°C 24.9°F-3.9°C 79% 13.8 mph E22.2 kmh E 19.6 mph31.5 kmh 30.05 in1017.6 mb - 0.00 in0.0 mm 0.00 in0.0 mm
12:00 PM 30.0°F-1.1°C 26.3°F-3.2°C 86% 6.9 mph E11.1 kmh E 16.1 mph25.9 kmh 30.05 in1017.6 mb - 0.00 in0.0 mm 0.00 in0.0 mm
11:55 AM 30.2°F-1.0°C 26.5°F-3.1°C 86% 8.1 mph E13.0 kmh E 13.8 mph22.2 kmh 30.05 in1017.6 mb - 0.00 in0.0 mm 0.00 in0.0 mm
11:50 AM 31.2°F-0.4°C 26.7°F-2.9°C 83% 12.7 mph ENE20.4 kmh ENE 17.3 mph27.8 kmh 30.05 in1017.6 mb - 0.00 in0.0 mm 0.00 in0.0 mm
11:45 AM 33.5°F0.8°C 28.3°F-2.1°C 81% 8.1 mph NE13.0 kmh NE 24.2 mph38.9 kmh 30.04 in1017.3 mb - 0.00 in0.0 mm 0.00 in0.0 mm
11:40 AM 33.5°F0.8°C 28.0°F-2.2°C 80% 9.2 mph NE14.8 kmh NE 19.6 mph31.5 kmh 30.04 in1017.3 mb - 0.00 in0.0 mm 0.00 in0.0 mm
11:35 AM 33.5°F0.8°C 28.0°F-2.2°C 80% 15.0 mph NE24.1 kmh NE 26.5 mph42.6 kmh 30.04 in1017.3 mb - 0.00 in0.0 mm 0.00 in0.0 mm
11:30 AM 33.4°F0.8°C 28.5°F-1.9°C 82% 6.9 mph NE11.1 kmh NE 16.1 mph25.9 kmh 30.04 in1017.3 mb - 0.00 in0.0 mm 0.00 in0.0 mm
11:25 AM 33.2°F0.7°C 28.3°F-2.1°C 82% 11.5 mph NE18.5 kmh NE 24.2 mph38.9 kmh 30.04 in1017.3 mb - 0.00 in0.0 mm 0.00 in0.0 mm
11:20 AM 33.2°F0.7°C 28.3°F-2.1°C 82% 10.4 mph NE16.7 kmh NE 20.7 mph33.3 kmh 30.04 in1017.3 mb - 0.00 in0.0 mm 0.00 in0.0 mm
11:15 AM 33.2°F0.7°C 28.3°F-2.1°C 82% 11.5 mph NE18.5 kmh NE 16.1 mph25.9 kmh 30.04 in1017.3 mb - 0.00 in0.0 mm 0.00 in0.0 mm
11:10 AM 33.2°F0.7°C 28.6°F-1.9°C 83% 11.5 mph NE18.5 kmh NE 13.8 mph22.2 kmh 30.04 in1017.3 mb - 0.00 in0.0 mm 0.00 in0.0 mm
11:00 AM 33.4°F0.8°C 28.5°F-1.9°C 82% 5.8 mph NE9.3 kmh NE 11.5 mph18.5 kmh 30.04 in1017.3 mb - 0.00 in0.0 mm 0.00 in0.0 mm
10:55 AM 33.4°F0.8°C 28.8°F-1.8°C 83% 11.5 mph NE18.5 kmh NE 18.4 mph29.6 kmh 30.04 in1017.3 mb - 0.00 in0.0 mm 0.00 in0.0 mm
10:50 AM 33.3°F0.7°C 29.0°F-1.7°C 84% 12.7 mph NE20.4 kmh NE 20.7 mph33.3 kmh 30.04 in1017.3 mb - 0.00 in0.0 mm 0.00 in0.0 mm
10:45 AM 33.2°F0.7°C 28.9°F-1.7°C 84% 11.5 mph NE18.5 kmh NE 18.4 mph29.6 kmh 30.04 in1017.3 mb - 0.00 in0.0 mm 0.00 in0.0 mm
10:40 AM 33.4°F0.8°C 29.1°F-1.6°C 84% 10.4 mph NE16.7 kmh NE 16.1 mph25.9 kmh 30.04 in1017.3 mb - 0.00 in0.0 mm 0.00 in0.0 mm
10:35 AM 33.6°F0.9°C 29.0°F-1.7°C 83% 9.2 mph NE14.8 kmh NE 16.1 mph25.9 kmh 30.04 in1017.3 mb - 0.00 in0.0 mm 0.00 in0.0 mm
10:30 AM 33.6°F0.9°C 29.0°F-1.7°C 83% 9.2 mph NNE14.8 kmh NNE 11.5 mph18.5 kmh 30.04 in1017.3 mb - 0.00 in0.0 mm 0.00 in0.0 mm
10:25 AM 33.5°F0.8°C 28.9°F-1.7°C 83% 12.7 mph NNE20.4 kmh NNE 25.3 mph40.7 kmh 30.03 in1016.9 mb - 0.00 in0.0 mm 0.00 in0.0 mm
10:20 AM 33.5°F0.8°C 28.9°F-1.7°C 83% 12.7 mph NE20.4 kmh NE 20.7 mph33.3 kmh 30.04 in1017.3 mb - 0.00 in0.0 mm 0.00 in0.0 mm
10:15 AM 33.5°F0.8°C 29.2°F-1.6°C 84% 5.8 mph NE9.3 kmh NE 11.5 mph18.5 kmh 30.03 in1016.9 mb - 0.00 in0.0 mm 0.00 in0.0 mm
10:10 AM 33.6°F0.9°C 28.9°F-1.7°C 83% 11.5 mph NE18.5 kmh NE 15.0 mph24.1 kmh 30.03 in1016.9 mb - 0.00 in0.0 mm 0.00 in0.0 mm
10:00 AM 33.8°F1.0°C 28.9°F-1.7°C 82% 12.7 mph NE20.4 kmh NE 16.1 mph25.9 kmh 30.02 in1016.6 mb - 0.00 in0.0 mm 0.00 in0.0 mm
09:55 AM 33.9°F1.1°C 29.0°F-1.7°C 82% 12.7 mph NE20.4 kmh NE 18.4 mph29.6 kmh 30.02 in1016.6 mb - 0.00 in0.0 mm 0.00 in0.0 mm
09:50 AM 34.0°F1.1°C 29.1°F-1.6°C 82% 11.5 mph NE18.5 kmh NE 19.6 mph31.5 kmh 30.02 in1016.6 mb - 0.00 in0.0 mm 0.00 in0.0 mm
09:45 AM 33.8°F1.0°C 29.2°F-1.6°C 83% 10.4 mph NE16.7 kmh NE 16.1 mph25.9 kmh 30.02 in1016.6 mb - 0.00 in0.0 mm 0.00 in0.0 mm
09:40 AM 33.6°F0.9°C 29.0°F-1.7°C 83% 11.5 mph NE18.5 kmh NE 26.5 mph42.6 kmh 30.01 in1016.3 mb - 0.00 in0.0 mm 0.00 in0.0 mm
09:35 AM 33.5°F0.8°C 28.9°F-1.7°C 83% 6.9 mph NE11.1 kmh NE 16.1 mph25.9 kmh 30.01 in1016.3 mb - 0.00 in0.0 mm 0.00 in0.0 mm
09:30 AM 33.4°F0.8°C 28.8°F-1.8°C 83% 9.2 mph NNE14.8 kmh NNE 15.0 mph24.1 kmh 30.00 in1015.9 mb - 0.00 in0.0 mm 0.00 in0.0 mm
09:25 AM 33.1°F0.6°C 28.5°F-1.9°C 83% 10.4 mph NNE16.7 kmh NNE 24.2 mph38.9 kmh 30.00 in1015.9 mb - 0.00 in0.0 mm 0.00 in0.0 mm
09:20 AM 33.0°F0.6°C 28.4°F-2.0°C 83% 8.1 mph NE13.0 kmh NE 12.7 mph20.4 kmh 30.00 in1015.9 mb - 0.00 in0.0 mm 0.00 in0.0 mm
09:15 AM 33.0°F0.6°C 28.7°F-1.8°C 84% 10.4 mph NNE16.7 kmh NNE 13.8 mph22.2 kmh 30.00 in1015.9 mb - 0.00 in0.0 mm 0.00 in0.0 mm
09:10 AM 32.9°F0.5°C 28.9°F-1.7°C 85% 9.2 mph NE14.8 kmh NE 23.0 mph37.0 kmh 30.00 in1015.9 mb - 0.00 in0.0 mm 0.00 in0.0 mm
09:00 AM 32.7°F0.4°C 28.4°F-2.0°C 84% 6.9 mph NE11.1 kmh NE 13.8 mph22.2 kmh 29.99 in1015.6 mb - 0.00 in0.0 mm 0.00 in0.0 mm
08:55 AM 32.6°F0.3°C 28.6°F-1.9°C 85% 6.9 mph NE11.1 kmh NE 13.8 mph22.2 kmh 30.00 in1015.9 mb - 0.00 in0.0 mm 0.00 in0.0 mm
08:50 AM 32.6°F0.3°C 28.3°F-2.1°C 84% 6.9 mph NNE11.1 kmh NNE 12.7 mph20.4 kmh 30.00 in1015.9 mb - 0.00 in0.0 mm 0.00 in0.0 mm
08:45 AM 32.5°F0.3°C 28.5°F-1.9°C 85% 8.1 mph NNE13.0 kmh NNE 19.6 mph31.5 kmh 29.99 in1015.6 mb - 0.00 in0.0 mm 0.00 in0.0 mm
08:40 AM 32.4°F0.2°C 28.7°F-1.8°C 86% 9.2 mph N14.8 kmh N 16.1 mph25.9 kmh 29.99 in1015.6 mb - 0.00 in0.0 mm 0.00 in0.0 mm
08:35 AM 32.4°F0.2°C 29.2°F-1.6°C 88% 8.1 mph NNE13.0 kmh NNE 10.4 mph16.7 kmh 30.00 in1015.9 mb - 0.00 in0.0 mm 0.00 in0.0 mm
08:30 AM 32.3°F0.2°C 29.1°F-1.6°C 88% 6.9 mph NNE11.1 kmh NNE 13.8 mph22.2 kmh 30.00 in1015.9 mb - 0.00 in0.0 mm 0.00 in0.0 mm
08:25 AM 32.3°F0.2°C 29.1°F-1.6°C 88% 8.1 mph NE13.0 kmh NE 16.1 mph25.9 kmh 30.00 in1015.9 mb - 0.00 in0.0 mm 0.00 in0.0 mm
08:20 AM 32.2°F0.1°C 29.3°F-1.5°C 89% 6.9 mph NE11.1 kmh NE 11.5 mph18.5 kmh 30.00 in1015.9 mb - 0.00 in0.0 mm 0.00 in0.0 mm
08:15 AM 32.1°F0.1°C 29.2°F-1.6°C 89% 8.1 mph NE13.0 kmh NE 16.1 mph25.9 kmh 30.00 in1015.9 mb - 0.00 in0.0 mm 0.00 in0.0 mm
08:10 AM 31.9°F-0.1°C 29.3°F-1.5°C 90% 8.1 mph NE13.0 kmh NE 11.5 mph18.5 kmh 30.00 in1015.9 mb - 0.00 in0.0 mm 0.00 in0.0 mm
08:00 AM 31.6°F-0.2°C 29.0°F-1.7°C 90% 8.1 mph NNE13.0 kmh NNE 12.7 mph20.4 kmh 30.00 in1015.9 mb - 0.00 in0.0 mm 0.00 in0.0 mm
07:55 AM 31.5°F-0.3°C 28.9°F-1.7°C 90% 5.8 mph NE9.3 kmh NE 11.5 mph18.5 kmh 30.00 in1015.9 mb - 0.00 in0.0 mm 0.00 in0.0 mm
07:50 AM 31.4°F-0.3°C 28.8°F-1.8°C 90% 6.9 mph NE11.1 kmh NE 10.4 mph16.7 kmh 29.99 in1015.6 mb - 0.00 in0.0 mm 0.00 in0.0 mm
07:45 AM 31.3°F-0.4°C 28.7°F-1.8°C 90% 5.8 mph N9.3 kmh N 8.1 mph13.0 kmh 29.99 in1015.6 mb - 0.00 in0.0 mm 0.00 in0.0 mm
07:40 AM 31.2°F-0.4°C 28.6°F-1.9°C 90% 8.1 mph NNE13.0 kmh NNE 11.5 mph18.5 kmh 29.99 in1015.6 mb - 0.00 in0.0 mm 0.00 in0.0 mm
07:35 AM 31.2°F-0.4°C 28.6°F-1.9°C 90% 5.8 mph N9.3 kmh N 11.5 mph18.5 kmh 29.99 in1015.6 mb - 0.00 in0.0 mm 0.00 in0.0 mm
07:30 AM 31.1°F-0.5°C 28.5°F-1.9°C 90% 10.4 mph NE16.7 kmh NE 18.4 mph29.6 kmh 29.99 in1015.6 mb - 0.00 in0.0 mm 0.00 in0.0 mm
07:25 AM 31.0°F-0.6°C 28.4°F-2.0°C 90% 6.9 mph NNE11.1 kmh NNE 12.7 mph20.4 kmh 29.99 in1015.6 mb - 0.00 in0.0 mm 0.00 in0.0 mm
07:20 AM 31.0°F-0.6°C 28.4°F-2.0°C 90% 8.1 mph NNE13.0 kmh NNE 13.8 mph22.2 kmh 29.99 in1015.6 mb - 0.00 in0.0 mm 0.00 in0.0 mm
07:15 AM 30.9°F-0.6°C 28.3°F-2.1°C 90% 8.1 mph N13.0 kmh N 13.8 mph22.2 kmh 29.99 in1015.6 mb - 0.00 in0.0 mm 0.00 in0.0 mm
07:10 AM 30.9°F-0.6°C 28.0°F-2.2°C 89% 6.9 mph N11.1 kmh N 12.7 mph20.4 kmh 29.99 in1015.6 mb - 0.00 in0.0 mm 0.00 in0.0 mm
07:00 AM 31.1°F-0.5°C 27.4°F-2.6°C 86% 8.1 mph NE13.0 kmh NE 12.7 mph20.4 kmh 29.99 in1015.6 mb - 0.00 in0.0 mm 0.00 in0.0 mm
06:55 AM 31.3°F-0.4°C 27.3°F-2.6°C 85% 6.9 mph N11.1 kmh N 9.2 mph14.8 kmh 29.98 in1015.2 mb - 0.00 in0.0 mm 0.00 in0.0 mm
06:50 AM 31.4°F-0.3°C 26.8°F-2.9°C 83% 9.2 mph NE14.8 kmh NE 17.3 mph27.8 kmh 29.98 in1015.2 mb - 0.00 in0.0 mm 0.00 in0.0 mm
06:45 AM 31.4°F-0.3°C 26.5°F-3.1°C 82% 6.9 mph NNE11.1 kmh NNE 11.5 mph18.5 kmh 29.98 in1015.2 mb - 0.00 in0.0 mm 0.00 in0.0 mm
06:40 AM 31.4°F-0.3°C 26.2°F-3.2°C 81% 9.2 mph NNE14.8 kmh NNE 16.1 mph25.9 kmh 29.98 in1015.2 mb - 0.00 in0.0 mm 0.00 in0.0 mm
06:35 AM 31.5°F-0.3°C 26.6°F-3.0°C 82% 12.7 mph NE20.4 kmh NE 23.0 mph37.0 kmh 29.97 in1014.9 mb - 0.00 in0.0 mm 0.00 in0.0 mm
06:30 AM 31.5°F-0.3°C 26.6°F-3.0°C 82% 9.2 mph NE14.8 kmh NE 13.8 mph22.2 kmh 29.97 in1014.9 mb - 0.00 in0.0 mm 0.00 in0.0 mm
06:25 AM 31.5°F-0.3°C 26.3°F-3.2°C 81% 8.1 mph NNE13.0 kmh NNE 15.0 mph24.1 kmh 29.97 in1014.9 mb - 0.00 in0.0 mm 0.00 in0.0 mm
06:15 AM 31.3°F-0.4°C 26.4°F-3.1°C 82% 8.1 mph N13.0 kmh N 11.5 mph18.5 kmh 29.96 in1014.6 mb - 0.00 in0.0 mm 0.00 in0.0 mm
06:10 AM 31.3°F-0.4°C 26.8°F-2.9°C 83% 5.8 mph NNE9.3 kmh NNE 10.4 mph16.7 kmh 29.96 in1014.6 mb - 0.00 in0.0 mm 0.00 in0.0 mm
06:00 AM 31.5°F-0.3°C 26.9°F-2.8°C 83% 8.1 mph NNE13.0 kmh NNE 12.7 mph20.4 kmh 29.95 in1014.2 mb - 0.00 in0.0 mm 0.00 in0.0 mm
05:55 AM 31.5°F-0.3°C 26.9°F-2.8°C 83% 12.7 mph NE20.4 kmh NE 16.1 mph25.9 kmh 29.96 in1014.6 mb - 0.00 in0.0 mm 0.00 in0.0 mm
05:50 AM 31.5°F-0.3°C 27.2°F-2.7°C 84% 10.4 mph NE16.7 kmh NE 20.7 mph33.3 kmh 29.96 in1014.6 mb - 0.00 in0.0 mm 0.00 in0.0 mm
05:45 AM 31.4°F-0.3°C 27.1°F-2.7°C 84% 8.1 mph NNE13.0 kmh NNE 9.2 mph14.8 kmh 29.95 in1014.2 mb - 0.00 in0.0 mm 0.00 in0.0 mm
05:40 AM 31.2°F-0.4°C 27.2°F-2.7°C 85% 8.1 mph NE13.0 kmh NE 15.0 mph24.1 kmh 29.95 in1014.2 mb - 0.00 in0.0 mm 0.00 in0.0 mm
05:35 AM 31.1°F-0.5°C 27.4°F-2.6°C 86% 8.1 mph NE13.0 kmh NE 20.7 mph33.3 kmh 29.95 in1014.2 mb - 0.00 in0.0 mm 0.00 in0.0 mm
05:30 AM 30.9°F-0.6°C 27.2°F-2.7°C 86% 9.2 mph NNE14.8 kmh NNE 16.1 mph25.9 kmh 29.95 in1014.2 mb - 0.00 in0.0 mm 0.00 in0.0 mm
05:25 AM 30.7°F-0.7°C 27.3°F-2.6°C 87% 6.9 mph NNE11.1 kmh NNE 13.8 mph22.2 kmh 29.95 in1014.2 mb - 0.00 in0.0 mm 0.00 in0.0 mm
05:20 AM 30.4°F-0.9°C 27.5°F-2.5°C 89% 6.9 mph NE11.1 kmh NE 16.1 mph25.9 kmh 29.95 in1014.2 mb - 0.00 in0.0 mm 0.00 in0.0 mm
05:15 AM 30.2°F-1.0°C 27.3°F-2.6°C 89% 6.9 mph NNE11.1 kmh NNE 11.5 mph18.5 kmh 29.95 in1014.2 mb - 0.00 in0.0 mm 0.00 in0.0 mm
05:10 AM 29.9°F-1.2°C 27.1°F-2.7°C 89% 9.2 mph NNE14.8 kmh NNE 13.8 mph22.2 kmh 29.94 in1013.9 mb - 0.00 in0.0 mm 0.00 in0.0 mm
05:00 AM 29.6°F-1.3°C 27.0°F-2.8°C 90% 6.9 mph NE11.1 kmh NE 19.6 mph31.5 kmh 29.94 in1013.9 mb - 0.00 in0.0 mm 0.00 in0.0 mm
04:55 AM 29.4°F-1.4°C 26.8°F-2.9°C 90% 9.2 mph N14.8 kmh N 11.5 mph18.5 kmh 29.94 in1013.9 mb - 0.00 in0.0 mm 0.00 in0.0 mm
04:50 AM 29.3°F-1.5°C 26.7°F-2.9°C 90% 6.9 mph NE11.1 kmh NE 13.8 mph22.2 kmh 29.95 in1014.2 mb - 0.00 in0.0 mm 0.00 in0.0 mm
04:45 AM 29.1°F-1.6°C 26.6°F-3.0°C 90% 11.5 mph NNE18.5 kmh NNE 15.0 mph24.1 kmh 29.95 in1014.2 mb - 0.00 in0.0 mm 0.00 in0.0 mm
04:40 AM 28.7°F-1.8°C 26.7°F-2.9°C 92% 9.2 mph NE14.8 kmh NE 23.0 mph37.0 kmh 29.95 in1014.2 mb - 0.00 in0.0 mm 0.00 in0.0 mm
04:35 AM 28.5°F-1.9°C 26.5°F-3.1°C 92% 6.9 mph NE11.1 kmh NE 11.5 mph18.5 kmh 29.95 in1014.2 mb - 0.00 in0.0 mm 0.00 in0.0 mm
04:30 AM 28.2°F-2.1°C 26.2°F-3.2°C 92% 11.5 mph NE18.5 kmh NE 19.6 mph31.5 kmh 29.96 in1014.6 mb - 0.00 in0.0 mm 0.00 in0.0 mm
04:25 AM 28.0°F-2.2°C 26.0°F-3.3°C 92% 9.2 mph NE14.8 kmh NE 12.7 mph20.4 kmh 29.96 in1014.6 mb - 0.00 in0.0 mm 0.00 in0.0 mm
04:20 AM 27.9°F-2.3°C 25.6°F-3.6°C 91% 10.4 mph NE16.7 kmh NE 16.1 mph25.9 kmh 29.95 in1014.2 mb - 0.00 in0.0 mm 0.00 in0.0 mm
04:15 AM 28.0°F-2.2°C 25.7°F-3.5°C 91% 11.5 mph NE18.5 kmh NE 19.6 mph31.5 kmh 29.96 in1014.6 mb - 0.00 in0.0 mm 0.00 in0.0 mm
04:10 AM 28.3°F-2.1°C 26.3°F-3.2°C 92% 12.7 mph NE20.4 kmh NE 21.9 mph35.2 kmh 29.96 in1014.6 mb - 0.00 in0.0 mm 0.00 in0.0 mm
04:00 AM 28.9°F-1.7°C 27.1°F-2.7°C 93% 9.2 mph NE14.8 kmh NE 10.4 mph16.7 kmh 29.95 in1014.2 mb - 0.00 in0.0 mm 0.00 in0.0 mm
03:55 AM 29.0°F-1.7°C 27.2°F-2.7°C 93% 11.5 mph NE18.5 kmh NE 16.1 mph25.9 kmh 29.95 in1014.2 mb - 0.00 in0.0 mm 0.00 in0.0 mm
03:50 AM 29.0°F-1.7°C 27.2°F-2.7°C 93% 6.9 mph NE11.1 kmh NE 15.0 mph24.1 kmh 29.95 in1014.2 mb - 0.00 in0.0 mm 0.00 in0.0 mm
03:45 AM 28.7°F-1.8°C 27.2°F-2.7°C 94% 6.9 mph NNE11.1 kmh NNE 17.3 mph27.8 kmh 29.95 in1014.2 mb - 0.00 in0.0 mm 0.00 in0.0 mm
03:40 AM 27.8°F-2.3°C 25.8°F-3.4°C 92% 5.8 mph NNE9.3 kmh NNE 10.4 mph16.7 kmh 29.95 in1014.2 mb - 0.00 in0.0 mm 0.00 in0.0 mm
03:35 AM 27.7°F-2.4°C 25.7°F-3.5°C 92% 3.5 mph N5.6 kmh N 9.2 mph14.8 kmh 29.95 in1014.2 mb - 0.00 in0.0 mm 0.00 in0.0 mm
03:30 AM 27.6°F-2.4°C 25.6°F-3.6°C 92% 5.8 mph N9.3 kmh N 6.9 mph11.1 kmh 29.95 in1014.2 mb - 0.00 in0.0 mm 0.00 in0.0 mm
03:25 AM 27.6°F-2.4°C 25.3°F-3.7°C 91% 6.9 mph N11.1 kmh N 12.7 mph20.4 kmh 29.95 in1014.2 mb - 0.00 in0.0 mm 0.00 in0.0 mm
03:20 AM 27.5°F-2.5°C 25.0°F-3.9°C 90% 6.9 mph N11.1 kmh N 11.5 mph18.5 kmh 29.94 in1013.9 mb - 0.00 in0.0 mm 0.00 in0.0 mm
03:15 AM 27.5°F-2.5°C 25.0°F-3.9°C 90% 9.2 mph NNW14.8 kmh NNW 16.1 mph25.9 kmh 29.95 in1014.2 mb - 0.00 in0.0 mm 0.00 in0.0 mm
03:10 AM 27.4°F-2.6°C 24.9°F-3.9°C 90% 8.1 mph N13.0 kmh N 12.7 mph20.4 kmh 29.95 in1014.2 mb - 0.00 in0.0 mm 0.00 in0.0 mm
03:00 AM 27.4°F-2.6°C 24.6°F-4.1°C 89% 5.8 mph NW9.3 kmh NW 11.5 mph18.5 kmh 29.95 in1014.2 mb - 0.00 in0.0 mm 0.00 in0.0 mm
02:55 AM 27.3°F-2.6°C 24.2°F-4.3°C 88% 4.6 mph NNW7.4 kmh NNW 10.4 mph16.7 kmh 29.96 in1014.6 mb - 0.00 in0.0 mm 0.00 in0.0 mm
02:50 AM 27.3°F-2.6°C 24.2°F-4.3°C 88% 10.4 mph NNW16.7 kmh NNW 13.8 mph22.2 kmh 29.96 in1014.6 mb - 0.00 in0.0 mm 0.00 in0.0 mm
02:45 AM 27.2°F-2.7°C 23.8°F-4.6°C 87% 11.5 mph N18.5 kmh N 20.7 mph33.3 kmh 29.95 in1014.2 mb - 0.00 in0.0 mm 0.00 in0.0 mm
02:40 AM 27.1°F-2.7°C 23.7°F-4.6°C 87% 8.1 mph NNW13.0 kmh NNW 15.0 mph24.1 kmh 29.96 in1014.6 mb - 0.00 in0.0 mm 0.00 in0.0 mm
02:35 AM 27.0°F-2.8°C 23.4°F-4.8°C 86% 9.2 mph NW14.8 kmh NW 19.6 mph31.5 kmh 29.96 in1014.6 mb - 0.00 in0.0 mm 0.00 in0.0 mm
02:30 AM 27.0°F-2.8°C 23.4°F-4.8°C 86% 5.8 mph N9.3 kmh N 10.4 mph16.7 kmh 29.95 in1014.2 mb - 0.00 in0.0 mm 0.00 in0.0 mm
02:25 AM 27.0°F-2.8°C 23.4°F-4.8°C 86% 6.9 mph NNW11.1 kmh NNW 15.0 mph24.1 kmh 29.95 in1014.2 mb - 0.00 in0.0 mm 0.00 in0.0 mm
02:20 AM 27.0°F-2.8°C 23.1°F-4.9°C 85% 10.4 mph NNW16.7 kmh NNW 13.8 mph22.2 kmh 29.96 in1014.6 mb - 0.00 in0.0 mm 0.00 in0.0 mm
02:15 AM 27.0°F-2.8°C 23.1°F-4.9°C 85% 10.4 mph N16.7 kmh N 20.7 mph33.3 kmh 29.95 in1014.2 mb - 0.00 in0.0 mm 0.00 in0.0 mm
02:10 AM 27.0°F-2.8°C 23.1°F-4.9°C 85% 10.4 mph N16.7 kmh N 18.4 mph29.6 kmh 29.95 in1014.2 mb - 0.00 in0.0 mm 0.00 in0.0 mm
02:00 AM 27.0°F-2.8°C 22.8°F-5.1°C 84% 9.2 mph NNW14.8 kmh NNW 13.8 mph22.2 kmh 29.96 in1014.6 mb - 0.00 in0.0 mm 0.00 in0.0 mm
01:55 AM 27.0°F-2.8°C 22.8°F-5.1°C 84% 10.4 mph N16.7 kmh N 20.7 mph33.3 kmh 29.96 in1014.6 mb - 0.00 in0.0 mm 0.00 in0.0 mm
01:50 AM 26.9°F-2.8°C 22.7°F-5.2°C 84% 9.2 mph N14.8 kmh N 15.0 mph24.1 kmh 29.96 in1014.6 mb - 0.00 in0.0 mm 0.00 in0.0 mm
01:45 AM 26.9°F-2.8°C 22.4°F-5.3°C 83% 11.5 mph NNW18.5 kmh NNW 15.0 mph24.1 kmh 29.96 in1014.6 mb - 0.00 in0.0 mm 0.00 in0.0 mm
01:40 AM 26.8°F-2.9°C 22.3°F-5.4°C 83% 8.1 mph N13.0 kmh N 15.0 mph24.1 kmh 29.96 in1014.6 mb - 0.00 in0.0 mm 0.00 in0.0 mm
01:35 AM 26.7°F-2.9°C 22.2°F-5.4°C 83% 9.2 mph NW14.8 kmh NW 12.7 mph20.4 kmh 29.96 in1014.6 mb - 0.00 in0.0 mm 0.00 in0.0 mm
01:30 AM 26.6°F-3.0°C 21.8°F-5.7°C 82% 8.1 mph N13.0 kmh N 12.7 mph20.4 kmh 29.96 in1014.6 mb - 0.00 in0.0 mm 0.00 in0.0 mm
01:25 AM 26.5°F-3.1°C 21.7°F-5.7°C 82% 9.2 mph NW14.8 kmh NW 21.9 mph35.2 kmh 29.96 in1014.6 mb - 0.00 in0.0 mm 0.00 in0.0 mm
01:20 AM 26.4°F-3.1°C 21.7°F-5.7°C 82% 6.9 mph NNW11.1 kmh NNW 13.8 mph22.2 kmh 29.96 in1014.6 mb - 0.00 in0.0 mm 0.00 in0.0 mm
01:15 AM 26.3°F-3.2°C 21.6°F-5.8°C 82% 10.4 mph N16.7 kmh N 11.5 mph18.5 kmh 29.96 in1014.6 mb - 0.00 in0.0 mm 0.00 in0.0 mm
01:10 AM 26.2°F-3.2°C 21.4°F-5.9°C 82% 11.5 mph N18.5 kmh N 19.6 mph31.5 kmh 29.96 in1014.6 mb - 0.00 in0.0 mm 0.00 in0.0 mm
01:00 AM 26.0°F-3.3°C 21.3°F-5.9°C 82% 10.4 mph NW16.7 kmh NW 17.3 mph27.8 kmh 29.96 in1014.6 mb - 0.00 in0.0 mm 0.00 in0.0 mm
12:55 AM 26.0°F-3.3°C 21.3°F-5.9°C 82% 8.1 mph N13.0 kmh N 15.0 mph24.1 kmh 29.96 in1014.6 mb - 0.00 in0.0 mm 0.00 in0.0 mm
12:50 AM 25.9°F-3.4°C 21.1°F-6.1°C 82% 10.4 mph NW16.7 kmh NW 18.4 mph29.6 kmh 29.96 in1014.6 mb - 0.00 in0.0 mm 0.00 in0.0 mm
12:45 AM 25.8°F-3.4°C 20.8°F-6.2°C 81% 11.5 mph N18.5 kmh N 18.4 mph29.6 kmh 29.96 in1014.6 mb - 0.00 in0.0 mm 0.00 in0.0 mm
12:40 AM 25.7°F-3.5°C 20.7°F-6.3°C 81% 11.5 mph N18.5 kmh N 16.1 mph25.9 kmh 29.96 in1014.6 mb - 0.00 in0.0 mm 0.00 in0.0 mm
12:35 AM 25.6°F-3.6°C 20.6°F-6.3°C 81% 9.2 mph N14.8 kmh N 13.8 mph22.2 kmh 29.97 in1014.9 mb - 0.00 in0.0 mm 0.00 in0.0 mm
12:30 AM 25.6°F-3.6°C 20.6°F-6.3°C 81% 8.1 mph N13.0 kmh N 19.6 mph31.5 kmh 29.97 in1014.9 mb - 0.00 in0.0 mm 0.00 in0.0 mm
12:25 AM 25.6°F-3.6°C 20.6°F-6.3°C 81% 8.1 mph N13.0 kmh N 15.0 mph24.1 kmh 29.97 in1014.9 mb - 0.00 in0.0 mm 0.00 in0.0 mm
12:20 AM 25.6°F-3.6°C 20.6°F-6.3°C 81% 11.5 mph NNE18.5 kmh NNE 13.8 mph22.2 kmh 29.98 in1015.2 mb - 0.00 in0.0 mm 0.00 in0.0 mm
12:15 AM 25.6°F-3.6°C 20.6°F-6.3°C 81% 9.2 mph N14.8 kmh N 18.4 mph29.6 kmh 29.98 in1015.2 mb - 0.00 in0.0 mm 0.00 in0.0 mm
12:10 AM 25.6°F-3.6°C 20.5°F-6.4°C 81% 15.0 mph N24.1 kmh N 25.3 mph40.7 kmh 29.98 in1015.2 mb - 0.00 in0.0 mm 0.00 in0.0 mm
12:00 AM 25.3°F-3.7°C 20.3°F-6.5°C 81% 5.8 mph NW9.3 kmh NW 12.7 mph20.4 kmh 29.98 in1015.2 mb - 0.00 in0.0 mm 0.00 in0.0 mm